Time;durP1;ratioP1;P1;durP2;ratioP2;P2;SDS_P1;SDS_P2;PMS_P1;PMS_P2;Temp;Humidity;BMP_temperature;BMP_pressure;BME280_temperature;BME280_humidity;BME280_pressure;Samples;Min_cycle;Max_cycle;Signal;HPM_P1;HPM_P2
2021/12/25 00:01:47;;;;;;;0.10;0.10;;;;;;;;;;4214262;28;20090;-42
2021/12/25 00:03:50;;;;;;;0.00;0.00;;;;;;;;;;4196380;28;20053;-41
2021/12/25 00:05:54;;;;;;;0.10;0.00;;;;;;;;;;4196397;28;20049;-41
2021/12/25 00:07:55;;;;;;;0.10;0.10;;;;;;;;;;4213803;28;20087;-42
2021/12/25 00:09:57;;;;;;;0.10;0.10;;;;;;;;;;4214364;28;20108;-41
2021/12/25 00:11:58;;;;;;;0.20;0.10;;;;;;;;;;4214336;28;20052;-42
2021/12/25 00:14:00;;;;;;;0.00;0.00;;;;;;;;;;4214190;28;20052;-41
2021/12/25 00:16:01;;;;;;;0.10;0.10;;;;;;;;;;4214439;28;20090;-41
2021/12/25 00:18:01;;;;;;;0.25;0.10;;;;;;;;;;4214267;28;20430;-41
2021/12/25 00:20:03;;;;;;;0.20;0.10;;;;;;;;;;4214354;28;20106;-41
2021/12/25 00:22:04;;;;;;;0.08;0.08;;;;;;;;;;4213553;28;20052;-41
2021/12/25 00:24:05;;;;;;;0.03;0.03;;;;;;;;;;4214014;28;20159;-42
2021/12/25 00:26:22;;;;;;;0.20;0.10;;;;;;;;;;4214140;28;20059;-42
2021/12/25 00:33:04;;;;;;;0.25;0.10;;;;;;;;;;4213727;28;20102;-42
2021/12/25 00:34:55;;;;;;;0.25;0.10;;;;;;;;;;4210978;28;20052;-42
2021/12/25 00:36:56;;;;;;;0.28;0.00;;;;;;;;;;4213455;28;20480;-42
2021/12/25 00:38:57;;;;;;;0.00;0.00;;;;;;;;;;4213897;28;20458;-41
2021/12/25 00:40:58;;;;;;;0.10;0.10;;;;;;;;;;4214099;28;20052;-41
2021/12/25 00:42:59;;;;;;;0.17;0.10;;;;;;;;;;4210454;28;20052;-42
2021/12/25 00:45:01;;;;;;;0.08;0.03;;;;;;;;;;4197095;28;20101;-42
2021/12/25 00:47:02;;;;;;;0.08;0.08;;;;;;;;;;4196913;28;20098;-41
2021/12/25 00:49:03;;;;;;;0.10;0.10;;;;;;;;;;4196982;28;20484;-42
2021/12/25 00:51:05;;;;;;;0.25;0.17;;;;;;;;;;4196676;28;20056;-41
2021/12/25 00:53:06;;;;;;;0.03;0.03;;;;;;;;;;4196355;28;20115;-41
2021/12/25 00:55:08;;;;;;;0.10;0.10;;;;;;;;;;4196955;28;20095;-41
2021/12/25 00:57:09;;;;;;;0.20;0.10;;;;;;;;;;4196690;28;20108;-41
2021/12/25 00:59:10;;;;;;;0.10;0.10;;;;;;;;;;4197234;28;20114;-41
2021/12/25 01:01:12;;;;;;;0.10;0.05;;;;;;;;;;4179148;28;20045;-41
2021/12/25 01:03:13;;;;;;;0.10;0.10;;;;;;;;;;4197120;28;20105;-41
2021/12/25 01:05:15;;;;;;;0.10;0.10;;;;;;;;;;4197088;28;20459;-41
2021/12/25 01:07:16;;;;;;;0.00;0.00;;;;;;;;;;4196345;28;20060;-42
2021/12/25 01:09:17;;;;;;;0.00;0.00;;;;;;;;;;4179042;28;20056;-41
2021/12/25 01:11:18;;;;;;;0.13;0.10;;;;;;;;;;4178872;28;20511;-41
2021/12/25 01:13:29;;;;;;;0.15;0.08;;;;;;;;;;4196533;28;20106;-42
2021/12/25 01:15:41;;;;;;;0.20;0.10;;;;;;;;;;4178949;28;20393;-41
2021/12/25 01:22:16;;;;;;;0.10;0.05;;;;;;;;;;4196440;28;20048;-41
2021/12/25 01:31:06;;;;;;;0.10;0.10;;;;;;;;;;4195474;28;20114;-41
2021/12/25 01:35:56;;;;;;;0.20;0.20;;;;;;;;;;4196624;28;20437;-42
2021/12/25 01:41:54;;;;;;;0.08;0.08;;;;;;;;;;4196599;28;20513;-42
2021/12/25 01:48:43;;;;;;;0.20;0.10;;;;;;;;;;4196270;28;20064;-42
2021/12/25 01:50:44;;;;;;;0.05;0.05;;;;;;;;;;4195252;28;20566;-41
2021/12/25 01:52:45;;;;;;;0.10;0.10;;;;;;;;;;4195933;28;20048;-41
2021/12/25 01:54:47;;;;;;;0.20;0.00;;;;;;;;;;4196404;28;20057;-42
2021/12/25 01:56:48;;;;;;;0.00;0.00;;;;;;;;;;4195111;28;20099;-41
2021/12/25 01:58:49;;;;;;;0.00;0.00;;;;;;;;;;4195152;28;20051;-41
2021/12/25 02:00:52;;;;;;;0.10;0.10;;;;;;;;;;4195389;28;20078;-42
2021/12/25 02:02:54;;;;;;;0.00;0.00;;;;;;;;;;4197036;28;20498;-41
2021/12/25 02:04:55;;;;;;;0.10;0.10;;;;;;;;;;4198247;28;20467;-42
2021/12/25 02:06:57;;;;;;;0.10;0.10;;;;;;;;;;4197836;28;20060;-41
2021/12/25 02:08:58;;;;;;;0.25;0.10;;;;;;;;;;4199445;28;20372;-41
2021/12/25 02:10:59;;;;;;;0.10;0.10;;;;;;;;;;4198155;28;20055;-41
2021/12/25 02:13:02;;;;;;;0.10;0.10;;;;;;;;;;4214806;28;20044;-41
2021/12/25 02:15:08;;;;;;;0.00;0.00;;;;;;;;;;4197832;28;20100;-42
2021/12/25 02:17:19;;;;;;;0.10;0.10;;;;;;;;;;4199444;28;20040;-41
2021/12/25 02:19:47;;;;;;;0.43;0.10;;;;;;;;;;4198319;28;20052;-41
2021/12/25 02:21:41;;;;;;;0.10;0.10;;;;;;;;;;4198702;28;20044;-42
2021/12/25 02:23:42;;;;;;;0.10;0.10;;;;;;;;;;4208453;28;20072;-40
2021/12/25 02:25:43;;;;;;;0.00;0.00;;;;;;;;;;4197941;28;20048;-41
2021/12/25 02:27:44;;;;;;;0.63;0.10;;;;;;;;;;4215727;28;20154;-42
2021/12/25 02:29:45;;;;;;;0.10;0.10;;;;;;;;;;4215844;28;20426;-41
2021/12/25 02:31:48;;;;;;;0.50;0.10;;;;;;;;;;4197989;28;20524;-42
2021/12/25 02:33:49;;;;;;;0.10;0.10;;;;;;;;;;4198024;28;20052;-41
2021/12/25 02:35:50;;;;;;;0.10;0.10;;;;;;;;;;4197961;28;20044;-45
2021/12/25 02:37:51;;;;;;;0.00;0.00;;;;;;;;;;4197056;28;20056;-45
2021/12/25 02:39:53;;;;;;;0.35;0.13;;;;;;;;;;4197897;28;20094;-44
2021/12/25 02:41:54;;;;;;;0.25;0.10;;;;;;;;;;4215795;28;20048;-43
2021/12/25 02:43:55;;;;;;;0.00;0.00;;;;;;;;;;4197540;28;20048;-42
2021/12/25 02:46:12;;;;;;;0.10;0.10;;;;;;;;;;4197711;28;20056;-41
2021/12/25 02:48:15;;;;;;;0.00;0.00;;;;;;;;;;4197713;28;20089;-43
2021/12/25 02:50:22;;;;;;;0.15;0.03;;;;;;;;;;4214381;28;20058;-42
2021/12/25 02:52:23;;;;;;;0.15;0.10;;;;;;;;;;4214909;28;20044;-42
2021/12/25 02:54:24;;;;;;;0.10;0.10;;;;;;;;;;4197549;28;20049;-41
2021/12/25 02:56:26;;;;;;;0.52;0.22;;;;;;;;;;4215451;28;20071;-42
2021/12/25 02:58:26;;;;;;;0.00;0.00;;;;;;;;;;4197314;28;20113;-41
2021/12/25 03:00:35;;;;;;;0.10;0.10;;;;;;;;;;4196602;28;20044;-41
2021/12/25 03:02:36;;;;;;;0.00;0.00;;;;;;;;;;4197329;28;20119;-43
2021/12/25 03:04:38;;;;;;;0.00;0.00;;;;;;;;;;4197225;28;20218;-41
2021/12/25 03:06:39;;;;;;;0.08;0.08;;;;;;;;;;4214948;28;20052;-42
2021/12/25 03:08:40;;;;;;;0.47;0.10;;;;;;;;;;4196973;28;20052;-42
2021/12/25 03:10:41;;;;;;;0.17;0.10;;;;;;;;;;4197103;28;20048;-42
2021/12/25 03:12:52;;;;;;;0.10;0.10;;;;;;;;;;4197124;28;20128;-41
2021/12/25 03:15:15;;;;;;;0.10;0.10;;;;;;;;;;4215166;28;20056;-41
2021/12/25 03:17:16;;;;;;;0.17;0.10;;;;;;;;;;4215057;28;20052;-41
2021/12/25 03:19:25;;;;;;;0.15;0.08;;;;;;;;;;4215198;28;20044;-41
2021/12/25 03:21:26;;;;;;;0.00;0.00;;;;;;;;;;4215040;28;20098;-42
2021/12/25 03:23:28;;;;;;;0.13;0.10;;;;;;;;;;4214250;28;20048;-41
2021/12/25 03:25:29;;;;;;;0.20;0.10;;;;;;;;;;4215240;28;20056;-42
2021/12/25 03:27:31;;;;;;;0.10;0.10;;;;;;;;;;4197060;28;20045;-42
2021/12/25 03:29:35;;;;;;;1.10;0.20;;;;;;;;;;4197001;28;20619;-42
2021/12/25 03:31:36;;;;;;;0.10;0.10;;;;;;;;;;4215059;28;20055;-42
2021/12/25 03:33:37;;;;;;;0.28;0.10;;;;;;;;;;4196768;28;20407;-42
2021/12/25 03:35:38;;;;;;;0.00;0.00;;;;;;;;;;4214643;28;20070;-41
2021/12/25 03:37:39;;;;;;;0.10;0.10;;;;;;;;;;4214205;28;20048;-41
2021/12/25 03:39:40;;;;;;;0.10;0.10;;;;;;;;;;4214601;28;20047;-42
2021/12/25 03:41:42;;;;;;;0.32;0.10;;;;;;;;;;4214509;28;20047;-41
2021/12/25 03:43:44;;;;;;;0.20;0.15;;;;;;;;;;4214611;28;20056;-42
2021/12/25 03:45:45;;;;;;;0.10;0.10;;;;;;;;;;4183032;28;20049;-42
2021/12/25 03:47:49;;;;;;;0.00;0.00;;;;;;;;;;4180242;28;20057;-41
2021/12/25 03:59:11;;;;;;;0.05;0.00;;;;;;;;;;4181139;28;20492;-42
2021/12/25 04:01:44;;;;;;;0.20;0.10;;;;;;;;;;4163249;28;20049;-41
2021/12/25 04:04:00;;;;;;;0.43;0.10;;;;;;;;;;4181310;28;20048;-42
2021/12/25 04:06:07;;;;;;;0.03;0.03;;;;;;;;;;4180970;28;20056;-43
2021/12/25 04:08:11;;;;;;;0.28;0.10;;;;;;;;;;4179211;28;20110;-42
2021/12/25 04:10:12;;;;;;;0.17;0.05;;;;;;;;;;4179890;28;20057;-42
2021/12/25 04:12:14;;;;;;;0.30;0.05;;;;;;;;;;4181023;28;20096;-42
2021/12/25 04:14:15;;;;;;;0.10;0.10;;;;;;;;;;4181026;28;20424;-41
2021/12/25 04:16:16;;;;;;;0.05;0.03;;;;;;;;;;4180871;28;20099;-41
2021/12/25 04:18:17;;;;;;;0.17;0.10;;;;;;;;;;4179697;28;20053;-41
2021/12/25 04:20:18;;;;;;;0.40;0.10;;;;;;;;;;4179391;28;20049;-41
2021/12/25 04:22:27;;;;;;;0.00;0.00;;;;;;;;;;4180436;28;20099;-41
2021/12/25 04:24:32;;;;;;;0.10;0.10;;;;;;;;;;4177846;28;20588;-41
2021/12/25 04:26:37;;;;;;;0.08;0.08;;;;;;;;;;4179264;28;20406;-41
2021/12/25 04:29:01;;;;;;;0.20;0.10;;;;;;;;;;4179606;28;20445;-42
2021/12/25 04:31:20;;;;;;;0.00;0.00;;;;;;;;;;4195963;28;20048;-42
2021/12/25 04:42:41;;;;;;;0.20;0.20;;;;;;;;;;4179177;28;20056;-41
2021/12/25 05:04:26;;;;;;;0.25;0.13;;;;;;;;;;4157265;28;19970;-42
2021/12/25 05:06:36;;;;;;;0.10;0.10;;;;;;;;;;4179195;28;20056;-42
2021/12/25 05:08:38;;;;;;;0.38;0.08;;;;;;;;;;4180160;28;20052;-42
2021/12/25 05:10:39;;;;;;;0.38;0.10;;;;;;;;;;4180303;28;20053;-42
2021/12/25 05:12:40;;;;;;;0.10;0.10;;;;;;;;;;4178742;28;20103;-41
2021/12/25 05:14:41;;;;;;;0.10;0.10;;;;;;;;;;4180233;28;20118;-41
2021/12/25 05:16:42;;;;;;;0.20;0.10;;;;;;;;;;4178918;28;20045;-42
2021/12/25 05:18:43;;;;;;;0.10;0.10;;;;;;;;;;4178881;28;20378;-41
2021/12/25 05:20:44;;;;;;;0.25;0.03;;;;;;;;;;4178802;28;20077;-42
2021/12/25 05:22:46;;;;;;;0.30;0.10;;;;;;;;;;4194795;28;20060;-42
2021/12/25 05:24:49;;;;;;;0.00;0.00;;;;;;;;;;4178917;28;20064;-42
2021/12/25 05:26:50;;;;;;;0.20;0.10;;;;;;;;;;4195561;28;20048;-41
2021/12/25 05:28:58;;;;;;;0.08;0.08;;;;;;;;;;4195623;28;20049;-42
2021/12/25 05:31:02;;;;;;;0.00;0.00;;;;;;;;;;4195398;28;20508;-41
2021/12/25 05:33:19;;;;;;;0.10;0.10;;;;;;;;;;4195304;28;20049;-41
2021/12/25 05:35:49;;;;;;;0.10;0.10;;;;;;;;;;4178843;28;20386;-42
2021/12/25 05:38:25;;;;;;;0.10;0.10;;;;;;;;;;4189778;28;20044;-41
2021/12/25 05:40:42;;;;;;;0.00;0.00;;;;;;;;;;4182383;28;20045;-42
2021/12/25 05:42:43;;;;;;;0.10;0.10;;;;;;;;;;4181999;28;20443;-42
2021/12/25 05:44:44;;;;;;;0.10;0.10;;;;;;;;;;4198663;28;20048;-43
2021/12/25 05:47:00;;;;;;;0.03;0.00;;;;;;;;;;4199651;28;20056;-42
2021/12/25 05:49:01;;;;;;;0.10;0.10;;;;;;;;;;4198529;28;20064;-41
2021/12/25 05:51:06;;;;;;;0.20;0.20;;;;;;;;;;4200114;28;20056;-41
2021/12/25 05:53:27;;;;;;;0.05;0.05;;;;;;;;;;4181326;28;20513;-41
2021/12/25 05:55:46;;;;;;;0.10;0.05;;;;;;;;;;4199791;28;20049;-41
2021/12/25 05:58:20;;;;;;;0.00;0.00;;;;;;;;;;4198847;28;20481;-42
2021/12/25 06:00:36;;;;;;;0.20;0.08;;;;;;;;;;4181824;28;20106;-41
2021/12/25 06:02:37;;;;;;;0.30;0.13;;;;;;;;;;4199363;28;20488;-42
2021/12/25 06:04:39;;;;;;;0.00;0.00;;;;;;;;;;4181973;28;20053;-42
2021/12/25 06:06:40;;;;;;;0.10;0.10;;;;;;;;;;4199106;28;20062;-42
2021/12/25 06:08:41;;;;;;;0.10;0.10;;;;;;;;;;4199407;28;20095;-41
2021/12/25 06:10:42;;;;;;;0.10;0.10;;;;;;;;;;4181597;28;20087;-42
2021/12/25 06:12:44;;;;;;;0.00;0.00;;;;;;;;;;4198099;28;20079;-42
2021/12/25 06:14:47;;;;;;;0.10;0.10;;;;;;;;;;4198372;28;20053;-42
2021/12/25 06:16:56;;;;;;;0.20;0.10;;;;;;;;;;4181388;28;20568;-41
2021/12/25 06:19:09;;;;;;;0.30;0.10;;;;;;;;;;4181525;28;20048;-41
2021/12/25 06:21:25;;;;;;;0.10;0.10;;;;;;;;;;4181828;28;20056;-41
2021/12/25 06:23:42;;;;;;;0.15;0.13;;;;;;;;;;4181117;28;20414;-41
2021/12/25 06:25:55;;;;;;;0.00;0.00;;;;;;;;;;4182693;28;20126;-41
2021/12/25 06:27:59;;;;;;;0.20;0.10;;;;;;;;;;4182598;28;20061;-42
2021/12/25 06:30:08;;;;;;;0.10;0.10;;;;;;;;;;4182517;28;20393;-42
2021/12/25 06:32:27;;;;;;;;;;;;;;;;;;4183264;28;20049;-41
2021/12/25 06:34:47;;;;;;;0.10;0.00;;;;;;;;;;4182949;28;19916;-42
2021/12/25 06:37:00;;;;;;;0.10;0.03;;;;;;;;;;4164318;28;20061;-41
2021/12/25 06:39:27;;;;;;;0.10;0.10;;;;;;;;;;4159133;28;20049;-42
2021/12/25 06:41:34;;;;;;;0.10;0.10;;;;;;;;;;4164633;28;20049;-42
2021/12/25 06:43:36;;;;;;;0.10;0.10;;;;;;;;;;4180994;28;20390;-41
2021/12/25 06:45:39;;;;;;;0.05;0.03;;;;;;;;;;4164856;28;20050;-41
2021/12/25 06:47:40;;;;;;;0.00;0.00;;;;;;;;;;4180415;28;20053;-42
2021/12/25 06:49:43;;;;;;;0.22;0.10;;;;;;;;;;4164481;28;20045;-43
2021/12/25 06:52:03;;;;;;;0.15;0.10;;;;;;;;;;4181870;28;20378;-42
2021/12/25 06:54:15;;;;;;;0.15;0.10;;;;;;;;;;4181097;28;20075;-41
2021/12/25 06:56:24;;;;;;;;;;;;;;;;;;4182989;28;20053;-41
2021/12/25 06:58:31;;;;;;;0.10;0.10;;;;;;;;;;4181112;28;20011;-42
2021/12/25 07:00:32;;;;;;;0.00;0.00;;;;;;;;;;4181977;28;20400;-42
2021/12/25 07:02:36;;;;;;;0.00;0.00;;;;;;;;;;4180877;28;20057;-42
2021/12/25 07:04:55;;;;;;;0.13;0.10;;;;;;;;;;4182365;28;20049;-42
2021/12/25 07:07:17;;;;;;;0.38;0.10;;;;;;;;;;4174368;28;20434;-42
2021/12/25 07:09:54;;;;;;;0.10;0.10;;;;;;;;;;4147259;28;20046;-42
2021/12/25 07:12:16;;;;;;;0.10;0.10;;;;;;;;;;4171555;28;20057;-41
2021/12/25 07:14:25;;;;;;;0.22;0.20;;;;;;;;;;4180541;28;20052;-41
2021/12/25 07:16:40;;;;;;;0.50;0.10;;;;;;;;;;4180559;28;20049;-42
2021/12/25 07:18:59;;;;;;;;;;;;;;;;;;4182689;28;20049;-41
2021/12/25 07:21:19;;;;;;;0.20;0.10;;;;;;;;;;4181919;28;19916;-41
2021/12/25 07:23:35;;;;;;;0.20;0.10;;;;;;;;;;4171394;28;20057;-42
2021/12/25 07:25:54;;;;;;;0.10;0.10;;;;;;;;;;4198606;28;20064;-41
2021/12/25 07:28:05;;;;;;;0.28;0.17;;;;;;;;;;4197131;28;20150;-42
2021/12/25 07:30:07;;;;;;;0.22;0.10;;;;;;;;;;4180371;28;20149;-42
2021/12/25 07:32:07;;;;;;;0.08;0.08;;;;;;;;;;4198078;28;20457;-42
2021/12/25 07:34:08;;;;;;;0.08;0.08;;;;;;;;;;4198149;28;20407;-42
2021/12/25 07:36:10;;;;;;;0.05;0.00;;;;;;;;;;4198220;28;20059;-41
2021/12/25 07:38:11;;;;;;;0.20;0.20;;;;;;;;;;4197395;28;20048;-41
2021/12/25 07:40:12;;;;;;;0.10;0.10;;;;;;;;;;4197925;28;20091;-41
2021/12/25 07:42:13;;;;;;;0.45;0.10;;;;;;;;;;4198058;28;20045;-41
2021/12/25 07:44:32;;;;;;;0.10;0.10;;;;;;;;;;4198358;28;20094;-42
2021/12/25 07:46:34;;;;;;;0.00;0.00;;;;;;;;;;4197948;28;20323;-43
2021/12/25 07:48:35;;;;;;;0.13;0.10;;;;;;;;;;4197856;28;20053;-42
2021/12/25 07:50:36;;;;;;;0.10;0.10;;;;;;;;;;4197962;28;20066;-42
2021/12/25 07:52:37;;;;;;;0.30;0.10;;;;;;;;;;4197266;28;20087;-41
2021/12/25 07:54:37;;;;;;;0.20;0.10;;;;;;;;;;4179972;28;20128;-41
2021/12/25 07:56:39;;;;;;;0.00;0.00;;;;;;;;;;4197863;28;20117;-42
2021/12/25 07:58:40;;;;;;;0.10;0.10;;;;;;;;;;4197836;28;20054;-41
2021/12/25 08:00:41;;;;;;;0.00;0.00;;;;;;;;;;4196818;28;20052;-42
2021/12/25 08:02:43;;;;;;;0.10;0.00;;;;;;;;;;4197586;28;20048;-41
2021/12/25 08:04:44;;;;;;;0.10;0.10;;;;;;;;;;4197844;28;20094;-42
2021/12/25 08:06:45;;;;;;;0.10;0.10;;;;;;;;;;4196967;28;20091;-42
2021/12/25 08:08:49;;;;;;;0.00;0.00;;;;;;;;;;4207573;28;20098;-41
2021/12/25 08:10:50;;;;;;;0.10;0.10;;;;;;;;;;4214539;28;20048;-43
2021/12/25 08:12:52;;;;;;;0.10;0.08;;;;;;;;;;4214186;28;20570;-41
2021/12/25 08:14:53;;;;;;;0.10;0.10;;;;;;;;;;4214232;28;20059;-43
2021/12/25 08:16:55;;;;;;;0.00;0.00;;;;;;;;;;4214060;28;20503;-42
2021/12/25 08:18:56;;;;;;;0.10;0.10;;;;;;;;;;4196080;28;20125;-42
2021/12/25 08:21:21;;;;;;;0.10;0.08;;;;;;;;;;4159218;28;20041;-42
2021/12/25 08:23:54;;;;;;;0.20;0.10;;;;;;;;;;4169201;28;20074;-42
2021/12/25 08:26:14;;;;;;;0.32;0.15;;;;;;;;;;4214334;28;20048;-42
2021/12/25 08:28:33;;;;;;;0.55;0.10;;;;;;;;;;4213956;28;20052;-42
2021/12/25 08:31:06;;;;;;;0.00;0.00;;;;;;;;;;4158657;28;20480;-42
2021/12/25 08:33:33;;;;;;;0.10;0.10;;;;;;;;;;4213707;28;20396;-42
2021/12/25 08:35:57;;;;;;;0.00;0.00;;;;;;;;;;4175850;28;20089;-41
2021/12/25 08:37:58;;;;;;;0.10;0.10;;;;;;;;;;4213464;28;20118;-41
2021/12/25 08:39:59;;;;;;;0.10;0.10;;;;;;;;;;4213942;28;20052;-42
2021/12/25 08:42:03;;;;;;;0.43;0.13;;;;;;;;;;4213678;28;20488;-41
2021/12/25 08:44:18;;;;;;;0.20;0.10;;;;;;;;;;4213932;28;20484;-41
2021/12/25 08:46:35;;;;;;;0.10;0.10;;;;;;;;;;4213993;28;20051;-42
2021/12/25 08:48:36;;;;;;;0.05;0.05;;;;;;;;;;4213711;28;20072;-41
2021/12/25 08:50:37;;;;;;;0.13;0.05;;;;;;;;;;4213995;28;20074;-43
2021/12/25 08:52:38;;;;;;;0.00;0.00;;;;;;;;;;4213390;28;20047;-41
2021/12/25 08:54:40;;;;;;;0.10;0.05;;;;;;;;;;4213561;28;20040;-41
2021/12/25 08:56:41;;;;;;;0.13;0.10;;;;;;;;;;4213514;28;20044;-42
2021/12/25 08:58:42;;;;;;;0.00;0.00;;;;;;;;;;4213679;28;20150;-42
2021/12/25 09:00:43;;;;;;;0.10;0.10;;;;;;;;;;4213775;28;20105;-41
2021/12/25 09:02:44;;;;;;;0.10;0.10;;;;;;;;;;4195809;28;20078;-41
2021/12/25 09:04:46;;;;;;;0.00;0.00;;;;;;;;;;4213531;28;20083;-42
2021/12/25 09:06:47;;;;;;;0.10;0.00;;;;;;;;;;4212929;28;20051;-41
2021/12/25 09:08:48;;;;;;;0.00;0.00;;;;;;;;;;4213895;28;20139;-42
2021/12/25 09:10:50;;;;;;;0.10;0.00;;;;;;;;;;4213447;28;20086;-41
2021/12/25 09:12:51;;;;;;;0.00;0.00;;;;;;;;;;4213553;28;20048;-42
2021/12/25 09:14:52;;;;;;;0.10;0.00;;;;;;;;;;4213451;28;20048;-42
2021/12/25 09:16:53;;;;;;;0.05;0.05;;;;;;;;;;4213250;28;20478;-42
2021/12/25 09:18:54;;;;;;;0.10;0.10;;;;;;;;;;4213627;28;20044;-42
2021/12/25 09:20:55;;;;;;;0.20;0.10;;;;;;;;;;4213701;28;20093;-41
2021/12/25 09:22:57;;;;;;;0.20;0.13;;;;;;;;;;4212968;28;20322;-41
2021/12/25 09:24:58;;;;;;;0.10;0.05;;;;;;;;;;4213412;28;20056;-41
2021/12/25 09:26:59;;;;;;;0.10;0.10;;;;;;;;;;4213145;28;20487;-41
2021/12/25 09:29:00;;;;;;;0.10;0.10;;;;;;;;;;4213258;28;20077;-42
2021/12/25 09:31:01;;;;;;;0.00;0.00;;;;;;;;;;4213352;28;20477;-41
2021/12/25 09:33:02;;;;;;;0.25;0.10;;;;;;;;;;4213339;28;20094;-42
2021/12/25 09:35:04;;;;;;;0.10;0.10;;;;;;;;;;4213310;28;20048;-41
2021/12/25 09:37:06;;;;;;;0.35;0.10;;;;;;;;;;4212870;28;20040;-41
2021/12/25 09:39:07;;;;;;;0.10;0.10;;;;;;;;;;4213065;28;20044;-41
2021/12/25 09:41:08;;;;;;;0.10;0.10;;;;;;;;;;4213500;28;20147;-42
2021/12/25 09:43:09;;;;;;;0.08;0.00;;;;;;;;;;4213347;28;20166;-42
2021/12/25 09:45:10;;;;;;;0.10;0.10;;;;;;;;;;4213451;28;20495;-41
2021/12/25 09:47:12;;;;;;;0.00;0.00;;;;;;;;;;4213108;28;20326;-42
2021/12/25 09:49:13;;;;;;;0.10;0.10;;;;;;;;;;4213216;28;20060;-41
2021/12/25 09:51:14;;;;;;;0.10;0.10;;;;;;;;;;4213079;28;20433;-41
2021/12/25 09:53:16;;;;;;;0.00;0.00;;;;;;;;;;4212548;28;20095;-43
2021/12/25 09:55:18;;;;;;;1.42;0.10;;;;;;;;;;4213168;28;20048;-42
2021/12/25 09:57:19;;;;;;;0.00;0.00;;;;;;;;;;4212957;28;20132;-42
2021/12/25 09:59:20;;;;;;;0.15;0.10;;;;;;;;;;4213274;28;20506;-42
2021/12/25 10:01:31;;;;;;;0.00;0.00;;;;;;;;;;4213110;28;20113;-41
2021/12/25 10:03:48;;;;;;;0.10;0.10;;;;;;;;;;4213262;28;20044;-42
2021/12/25 10:05:49;;;;;;;0.00;0.00;;;;;;;;;;4213157;28;20052;-42
2021/12/25 10:08:07;;;;;;;0.00;0.00;;;;;;;;;;4212590;28;20043;-41
2021/12/25 10:10:10;;;;;;;0.00;0.00;;;;;;;;;;4213350;28;20052;-41
2021/12/25 10:12:13;;;;;;;0.22;0.10;;;;;;;;;;4212818;28;20047;-41
2021/12/25 10:14:16;;;;;;;0.10;0.10;;;;;;;;;;4212948;28;20051;-41
2021/12/25 10:16:19;;;;;;;0.10;0.10;;;;;;;;;;4212867;28;20403;-41
2021/12/25 10:18:24;;;;;;;0.10;0.10;;;;;;;;;;4212867;28;20044;-41
2021/12/25 10:20:26;;;;;;;0.10;0.10;;;;;;;;;;4212979;28;20117;-41
2021/12/25 10:22:27;;;;;;;0.05;0.03;;;;;;;;;;4212334;28;20040;-41
2021/12/25 10:24:29;;;;;;;0.10;0.10;;;;;;;;;;4215586;28;20132;-42
2021/12/25 10:26:30;;;;;;;0.10;0.00;;;;;;;;;;4215785;28;20066;-42
2021/12/25 10:28:33;;;;;;;0.25;0.17;;;;;;;;;;4215875;28;20151;-41
2021/12/25 10:30:47;;;;;;;0.10;0.10;;;;;;;;;;4197941;28;20346;-41
2021/12/25 10:32:48;;;;;;;0.10;0.10;;;;;;;;;;4215673;28;20052;-41
2021/12/25 10:34:50;;;;;;;0.00;0.00;;;;;;;;;;4215847;28;20044;-41
2021/12/25 10:36:51;;;;;;;0.20;0.20;;;;;;;;;;4215165;28;20048;-42
2021/12/25 10:39:07;;;;;;;0.00;0.00;;;;;;;;;;4215781;28;20048;-41
2021/12/25 10:41:10;;;;;;;0.10;0.10;;;;;;;;;;4215821;28;20317;-42
2021/12/25 10:43:21;;;;;;;0.30;0.10;;;;;;;;;;4215727;28;20353;-42
2021/12/25 10:45:26;;;;;;;0.08;0.08;;;;;;;;;;4215815;28;20105;-41
2021/12/25 10:47:27;;;;;;;0.25;0.15;;;;;;;;;;4215896;28;20055;-41
2021/12/25 10:49:33;;;;;;;0.10;0.10;;;;;;;;;;4215697;28;20052;-42
2021/12/25 10:51:34;;;;;;;0.10;0.10;;;;;;;;;;4215410;28;20056;-41
2021/12/25 10:53:42;;;;;;;0.08;0.08;;;;;;;;;;4214997;28;20136;-42
2021/12/25 10:55:43;;;;;;;0.32;0.08;;;;;;;;;;4215656;28;20378;-41
2021/12/25 10:57:58;;;;;;;0.10;0.10;;;;;;;;;;4215646;28;20047;-41
2021/12/25 10:59:59;;;;;;;0.10;0.10;;;;;;;;;;4215639;28;20047;-42
2021/12/25 11:02:00;;;;;;;0.10;0.10;;;;;;;;;;4215440;28;20052;-41
2021/12/25 11:04:01;;;;;;;0.10;0.10;;;;;;;;;;4215487;28;20508;-41
2021/12/25 11:06:05;;;;;;;0.40;0.10;;;;;;;;;;4215400;28;20048;-42
2021/12/25 11:08:12;;;;;;;0.20;0.10;;;;;;;;;;4214795;28;20081;-41
2021/12/25 11:10:15;;;;;;;0.10;0.10;;;;;;;;;;4215452;28;20052;-41
2021/12/25 11:12:20;;;;;;;0.63;0.10;;;;;;;;;;4215524;28;20060;-42
2021/12/25 11:14:22;;;;;;;0.03;0.03;;;;;;;;;;4215316;28;20325;-41
2021/12/25 11:16:27;;;;;;;0.10;0.10;;;;;;;;;;4215287;28;20056;-41
2021/12/25 11:18:28;;;;;;;0.65;0.10;;;;;;;;;;4197174;28;20059;-41
2021/12/25 11:20:31;;;;;;;0.10;0.10;;;;;;;;;;4215145;28;20177;-41
2021/12/25 11:22:51;;;;;;;0.20;0.20;;;;;;;;;;4214784;28;20048;-42
2021/12/25 11:24:52;;;;;;;0.20;0.03;;;;;;;;;;4215156;28;20111;-41
2021/12/25 11:26:55;;;;;;;0.17;0.10;;;;;;;;;;4214964;28;20048;-41
2021/12/25 11:28:56;;;;;;;0.30;0.10;;;;;;;;;;4215130;28;20051;-41
2021/12/25 11:30:57;;;;;;;0.10;0.10;;;;;;;;;;4214910;28;20093;-41
2021/12/25 11:32:58;;;;;;;0.20;0.17;;;;;;;;;;4214788;28;20491;-42
2021/12/25 11:34:59;;;;;;;0.25;0.15;;;;;;;;;;4214899;28;20101;-40
2021/12/25 11:37:01;;;;;;;0.10;0.10;;;;;;;;;;4214501;28;20056;-41
2021/12/25 11:39:02;;;;;;;0.10;0.10;;;;;;;;;;4215058;28;20047;-41
2021/12/25 11:41:05;;;;;;;0.28;0.20;;;;;;;;;;4214939;28;20048;-42
2021/12/25 11:43:06;;;;;;;0.10;0.10;;;;;;;;;;4196917;28;20094;-41
2021/12/25 11:45:18;;;;;;;0.10;0.10;;;;;;;;;;4214757;28;20105;-41
2021/12/25 11:47:39;;;;;;;0.10;0.10;;;;;;;;;;4214594;28;20549;-41
2021/12/25 11:49:55;;;;;;;0.13;0.10;;;;;;;;;;4215049;28;20463;-41
2021/12/25 11:52:13;;;;;;;0.10;0.10;;;;;;;;;;4214121;28;20454;-42
2021/12/25 11:56:49;;;;;;;0.10;0.10;;;;;;;;;;4214400;28;20093;-41
2021/12/25 11:58:54;;;;;;;0.20;0.10;;;;;;;;;;4196709;28;20078;-41
2021/12/25 12:00:55;;;;;;;0.10;0.10;;;;;;;;;;4214750;28;20056;-42
2021/12/25 12:02:56;;;;;;;0.20;0.10;;;;;;;;;;4214652;28;20462;-42
2021/12/25 12:05:17;;;;;;;0.10;0.10;;;;;;;;;;4214687;28;20066;-42
2021/12/25 12:07:22;;;;;;;0.20;0.10;;;;;;;;;;4214006;28;20189;-42
2021/12/25 12:09:46;;;;;;;0.00;0.00;;;;;;;;;;4206339;28;20056;-41
2021/12/25 12:12:02;;;;;;;0.20;0.10;;;;;;;;;;4214280;28;20071;-41
2021/12/25 12:14:26;;;;;;;0.43;0.10;;;;;;;;;;4214604;28;20044;-41
2021/12/25 12:16:55;;;;;;;0.00;0.00;;;;;;;;;;4185355;28;20083;-41
2021/12/25 12:19:37;;;;;;;0.10;0.10;;;;;;;;;;4196305;28;20071;-41
2021/12/25 12:21:41;;;;;;;0.30;0.20;;;;;;;;;;4214078;28;20056;-42
2021/12/25 12:25:59;;;;;;;0.10;0.10;;;;;;;;;;4214081;28;20349;-41
2021/12/25 12:28:01;;;;;;;0.10;0.10;;;;;;;;;;4214002;28;20051;-43
2021/12/25 12:30:03;;;;;;;0.10;0.10;;;;;;;;;;4213889;28;20048;-41
2021/12/25 12:32:20;;;;;;;0.10;0.10;;;;;;;;;;4214056;28;20333;-42
2021/12/25 12:34:30;;;;;;;0.15;0.15;;;;;;;;;;4214068;28;20056;-42
2021/12/25 12:36:30;;;;;;;;;;;;;;;;;;4214583;28;20094;-42
2021/12/25 12:38:38;;;;;;;0.50;0.20;;;;;;;;;;4195365;28;20407;-41
2021/12/25 12:40:39;;;;;;;0.35;0.10;;;;;;;;;;4213886;28;20048;-42
2021/12/25 12:42:41;;;;;;;0.10;0.10;;;;;;;;;;4213719;28;20417;-41
2021/12/25 12:44:42;;;;;;;0.10;0.10;;;;;;;;;;4213821;28;20056;-42
2021/12/25 12:46:55;;;;;;;0.20;0.15;;;;;;;;;;4213060;28;20089;-42
2021/12/25 12:49:06;;;;;;;0.30;0.10;;;;;;;;;;4213954;28;20055;-41
2021/12/25 12:51:17;;;;;;;0.10;0.10;;;;;;;;;;4213733;28;20059;-41
2021/12/25 12:53:19;;;;;;;0.20;0.10;;;;;;;;;;4213269;28;20369;-41
2021/12/25 12:55:27;;;;;;;0.10;0.10;;;;;;;;;;4214060;28;20044;-42
2021/12/25 12:57:34;;;;;;;0.10;0.10;;;;;;;;;;4213584;28;20051;-41
2021/12/25 12:59:58;;;;;;;0.20;0.08;;;;;;;;;;4213815;28;20541;-41
2021/12/25 13:02:02;;;;;;;0.10;0.10;;;;;;;;;;4205387;28;20484;-41
2021/12/25 13:04:03;;;;;;;0.10;0.10;;;;;;;;;;4213795;28;20056;-42
2021/12/25 13:06:11;;;;;;;0.10;0.10;;;;;;;;;;4213717;28;20056;-41
2021/12/25 13:08:14;;;;;;;0.55;0.20;;;;;;;;;;4213206;28;20052;-42
2021/12/25 13:10:24;;;;;;;1.08;0.15;;;;;;;;;;4213723;28;20476;-42
2021/12/25 13:12:37;;;;;;;0.10;0.10;;;;;;;;;;4213672;28;20073;-42
2021/12/25 13:14:39;;;;;;;0.00;0.00;;;;;;;;;;4213525;28;20401;-41
2021/12/25 13:16:43;;;;;;;0.35;0.10;;;;;;;;;;4213277;28;20048;-42
2021/12/25 13:18:45;;;;;;;0.10;0.10;;;;;;;;;;4213725;28;20052;-41
2021/12/25 13:20:51;;;;;;;0.10;0.10;;;;;;;;;;4213520;28;20067;-42
2021/12/25 13:22:55;;;;;;;0.15;0.10;;;;;;;;;;4213076;28;20051;-41
2021/12/25 13:25:04;;;;;;;0.10;0.10;;;;;;;;;;4213662;28;20060;-41
2021/12/25 13:27:06;;;;;;;0.32;0.32;;;;;;;;;;4213660;28;20048;-41
2021/12/25 13:29:08;;;;;;;0.30;0.10;;;;;;;;;;4213569;28;20044;-41
2021/12/25 13:31:14;;;;;;;0.30;0.10;;;;;;;;;;4213363;28;20089;-41
2021/12/25 13:33:19;;;;;;;0.13;0.10;;;;;;;;;;4213308;28;20048;-43
2021/12/25 13:35:24;;;;;;;0.15;0.10;;;;;;;;;;4213465;28;20048;-42
2021/12/25 13:37:25;;;;;;;0.10;0.10;;;;;;;;;;4195186;28;20045;-41
2021/12/25 13:39:28;;;;;;;0.20;0.10;;;;;;;;;;4213038;28;20048;-41
2021/12/25 13:41:32;;;;;;;0.10;0.10;;;;;;;;;;4213468;28;20044;-41
2021/12/25 13:43:33;;;;;;;0.28;0.10;;;;;;;;;;4213260;28;20350;-41
2021/12/25 13:45:35;;;;;;;0.10;0.10;;;;;;;;;;4213070;28;20047;-42